Time;durP1;ratioP1;P1;durP2;ratioP2;P2;SDS_P1;SDS_P2;PMS_P1;PMS_P2;Temp;Humidity;BMP_temperature;BMP_pressure;BME280_temperature;BME280_humidity;BME280_pressure;Samples;Min_cycle;Max_cycle;Signal;HPM_P1;HPM_P2
2021/09/10 00:00:45;;;;;;;22.63;20.02;;;20.60;99.90;;;;;;5010686;28;25070;-72
2021/09/10 00:03:11;;;;;;;31.83;20.80;;;20.50;99.90;;;;;;5006968;28;25060;-71
2021/09/10 00:05:36;;;;;;;26.83;20.00;;;20.50;99.90;;;;;;5016539;28;25147;-74
2021/09/10 00:08:02;;;;;;;24.73;19.73;;;20.50;99.90;;;;;;5014478;28;25097;-72
2021/09/10 00:10:29;;;;;;;25.95;20.83;;;20.60;99.90;;;;;;5016834;28;25098;-71
2021/09/10 00:12:54;;;;;;;25.10;22.00;;;20.60;99.90;;;;;;5007987;28;25070;-72
2021/09/10 00:15:20;;;;;;;24.55;21.98;;;20.60;99.90;;;;;;5010620;28;25059;-72
2021/09/10 00:17:46;;;;;;;26.10;22.08;;;20.50;99.90;;;;;;5010089;28;25071;-74
2021/09/10 00:20:12;;;;;;;24.05;20.80;;;20.40;99.90;;;;;;5003232;28;25083;-72
2021/09/10 00:22:37;;;;;;;26.95;22.13;;;20.30;99.90;;;;;;5008766;28;25149;-73
2021/09/10 00:25:04;;;;;;;26.17;21.58;;;20.20;99.90;;;;;;5010664;28;25094;-73
2021/09/10 00:27:29;;;;;;;25.38;21.38;;;20.20;99.90;;;;;;5004326;28;25082;-72
2021/09/10 00:29:55;;;;;;;25.45;21.00;;;20.30;99.90;;;;;;5001985;28;25099;-73
2021/09/10 00:32:24;;;;;;;23.45;20.92;;;20.30;99.90;;;;;;5009843;28;25054;-74
2021/09/10 00:34:50;;;;;;;25.20;21.38;;;20.20;99.90;;;;;;5009892;28;25074;-73
2021/09/10 00:37:15;;;;;;;24.65;19.15;;;20.20;99.90;;;;;;5010131;28;25157;-73
2021/09/10 00:39:41;;;;;;;22.55;18.77;;;20.20;99.90;;;;;;5008222;28;25073;-74
2021/09/10 00:42:07;;;;;;;24.77;19.00;;;20.20;99.90;;;;;;5012879;28;25084;-72
2021/09/10 00:44:32;;;;;;;23.88;19.85;;;20.20;99.90;;;;;;4998634;28;25101;-73
2021/09/10 00:46:58;;;;;;;22.00;19.45;;;20.20;99.90;;;;;;5009803;28;25078;-74
2021/09/10 00:49:24;;;;;;;22.25;18.83;;;20.30;99.90;;;;;;5007958;28;25076;-72
2021/09/10 00:51:50;;;;;;;24.85;19.83;;;20.30;99.90;;;;;;5008460;28;25157;-72
2021/09/10 00:54:17;;;;;;;23.80;19.42;;;20.30;99.90;;;;;;5009744;28;25058;-73
2021/09/10 00:56:43;;;;;;;23.52;19.42;;;20.30;99.90;;;;;;5008905;28;25058;-73
2021/09/10 00:59:08;;;;;;;22.77;19.67;;;20.30;99.90;;;;;;5010167;28;25053;-74
2021/09/10 01:01:34;;;;;;;24.25;18.45;;;20.20;99.90;;;;;;5008777;28;25187;-73
2021/09/10 01:04:02;;;;;;;22.60;19.08;;;20.30;99.90;;;;;;5009202;28;25080;-74
2021/09/10 01:06:29;;;;;;;23.67;20.13;;;20.30;99.90;;;;;;5009501;28;25062;-73
2021/09/10 01:09:08;;;;;;;21.83;17.73;;;20.30;99.90;;;;;;5009823;28;25128;-76
2021/09/10 01:11:34;;;;;;;22.85;20.00;;;20.30;99.90;;;;;;5010529;28;25075;-72
2021/09/10 01:14:00;;;;;;;25.50;20.80;;;20.10;99.90;;;;;;5011509;28;25053;-72
2021/09/10 01:16:26;;;;;;;24.05;19.73;;;20.20;99.90;;;;;;5011205;28;25065;-72
2021/09/10 01:18:52;;;;;;;22.92;19.80;;;20.20;99.90;;;;;;5013762;28;25105;-73
2021/09/10 01:21:17;;;;;;;24.00;19.77;;;20.20;99.90;;;;;;5009306;28;25086;-73
2021/09/10 01:23:43;;;;;;;24.48;21.00;;;20.10;99.90;;;;;;5008605;28;25055;-73
2021/09/10 01:26:09;;;;;;;23.67;20.42;;;20.10;99.90;;;;;;5011926;28;25150;-73
2021/09/10 01:28:34;;;;;;;25.92;20.70;;;20.10;99.90;;;;;;5008508;28;25062;-72
2021/09/10 01:31:00;;;;;;;25.00;20.92;;;20.00;99.90;;;;;;5010357;28;25130;-72
2021/09/10 01:33:26;;;;;;;27.60;21.40;;;20.00;99.90;;;;;;5002218;28;25046;-71
2021/09/10 01:35:51;;;;;;;26.30;20.73;;;19.90;99.90;;;;;;4998476;28;25097;-71
2021/09/10 01:38:17;;;;;;;29.38;22.88;;;19.90;99.90;;;;;;5010612;28;25137;-73
2021/09/10 01:40:43;;;;;;;25.42;21.85;;;19.90;99.90;;;;;;5002135;28;25154;-72
2021/09/10 01:43:09;;;;;;;26.70;21.38;;;19.90;99.90;;;;;;5005943;28;25113;-73
2021/09/10 01:45:35;;;;;;;23.98;21.00;;;19.90;99.90;;;;;;5010063;28;25072;-72
2021/09/10 01:48:01;;;;;;;28.65;23.23;;;19.90;99.90;;;;;;5009399;28;25150;-70
2021/09/10 01:50:27;;;;;;;27.73;22.13;;;19.90;99.90;;;;;;5006298;28;25092;-72
2021/09/10 01:52:53;;;;;;;27.67;22.27;;;19.90;99.90;;;;;;5010450;28;25069;-72
2021/09/10 01:55:20;;;;;;;25.27;20.45;;;19.90;99.90;;;;;;5007134;28;25058;-73
2021/09/10 01:57:47;;;;;;;27.52;22.73;;;19.90;99.90;;;;;;5027948;28;25068;-72
2021/09/10 02:00:14;;;;;;;28.80;20.83;;;19.90;99.90;;;;;;5017154;28;25061;-72
2021/09/10 02:02:41;;;;;;;24.40;19.85;;;19.90;99.90;;;;;;5009853;28;25062;-71
2021/09/10 02:05:08;;;;;;;24.42;21.15;;;19.90;99.90;;;;;;5000584;28;25065;-71
2021/09/10 02:07:34;;;;;;;30.70;21.25;;;19.90;99.90;;;;;;5006877;28;25149;-71
2021/09/10 02:09:59;;;;;;;32.00;23.00;;;20.00;99.90;;;;;;5004378;28;25065;-71
2021/09/10 02:12:25;;;;;;;26.50;20.33;;;20.00;99.90;;;;;;5008546;28;25046;-72
2021/09/10 02:14:51;;;;;;;24.85;21.00;;;20.00;99.90;;;;;;5009157;28;25055;-73
2021/09/10 02:17:16;;;;;;;26.05;22.00;;;20.00;99.90;;;;;;5010775;28;25150;-72
2021/09/10 02:19:42;;;;;;;27.48;21.73;;;20.10;99.90;;;;;;5008308;28;25059;-71
2021/09/10 02:22:08;;;;;;;27.52;22.42;;;20.00;99.90;;;;;;5000968;28;25048;-72
2021/09/10 02:24:33;;;;;;;22.98;19.98;;;19.90;99.90;;;;;;5005906;28;25078;-71
2021/09/10 02:26:59;;;;;;;27.30;21.20;;;20.00;99.90;;;;;;5004625;28;25068;-73
2021/09/10 02:29:24;;;;;;;26.58;20.83;;;20.00;99.90;;;;;;5009281;28;25051;-72
2021/09/10 02:31:50;;;;;;;28.00;20.95;;;20.00;99.90;;;;;;5005149;28;25129;-72
2021/09/10 02:34:16;;;;;;;24.15;20.55;;;20.00;99.90;;;;;;5004957;28;25056;-73
2021/09/10 02:36:41;;;;;;;28.73;22.52;;;20.00;99.90;;;;;;5006317;28;25069;-72
2021/09/10 02:39:11;;;;;;;26.45;21.40;;;19.90;99.90;;;;;;5005731;28;25083;-73
2021/09/10 02:41:37;;;;;;;30.15;20.95;;;19.90;99.90;;;;;;5004461;28;25063;-72
2021/09/10 02:44:04;;;;;;;23.33;19.52;;;19.90;99.90;;;;;;5008567;28;25040;-72
2021/09/10 02:46:30;;;;;;;26.45;19.73;;;20.00;99.90;;;;;;5010715;28;25101;-72
2021/09/10 02:49:05;;;;;;;24.35;19.75;;;20.10;99.90;;;;;;5030439;28;25081;-72
2021/09/10 02:51:33;;;;;;;27.05;21.95;;;20.10;99.90;;;;;;5030541;28;25054;-72
2021/09/10 02:53:59;;;;;;;24.98;21.08;;;20.00;99.90;;;;;;5019483;28;25088;-73
2021/09/10 02:56:24;;;;;;;27.85;21.85;;;20.00;99.90;;;;;;5008480;28;25070;-73
2021/09/10 02:58:50;;;;;;;25.92;21.73;;;19.90;99.90;;;;;;5007751;28;25047;-73
2021/09/10 03:01:16;;;;;;;25.75;20.90;;;19.80;99.90;;;;;;5008219;28;25150;-73
2021/09/10 03:03:41;;;;;;;24.48;21.00;;;19.90;99.90;;;;;;5006992;28;25071;-73
2021/09/10 03:06:07;;;;;;;28.05;21.83;;;19.80;99.90;;;;;;5007435;28;25006;-74
2021/09/10 03:08:33;;;;;;;24.17;20.75;;;19.90;99.90;;;;;;5003029;28;25058;-73
2021/09/10 03:10:58;;;;;;;25.63;20.88;;;19.90;99.90;;;;;;5008939;28;25056;-72
2021/09/10 03:13:24;;;;;;;26.23;20.70;;;19.80;99.90;;;;;;5004824;28;25148;-72
2021/09/10 03:15:50;;;;;;;24.17;20.38;;;19.80;99.90;;;;;;5000818;28;25079;-71
2021/09/10 03:18:15;;;;;;;25.60;19.70;;;19.80;99.90;;;;;;5000106;28;25058;-72
2021/09/10 03:20:43;;;;;;;25.50;18.83;;;19.90;99.90;;;;;;5001487;28;25048;-72
2021/09/10 03:23:08;;;;;;;25.35;21.65;;;19.90;99.90;;;;;;5003249;28;25166;-73
2021/09/10 03:25:34;;;;;;;23.92;18.65;;;19.90;99.90;;;;;;5007228;28;25104;-72
2021/09/10 03:28:00;;;;;;;26.88;19.98;;;19.80;99.90;;;;;;5002221;28;25076;-72
2021/09/10 03:30:25;;;;;;;26.67;20.05;;;19.80;99.90;;;;;;4984522;28;25078;-72
2021/09/10 03:32:51;;;;;;;24.25;18.67;;;19.80;99.90;;;;;;5006870;28;25112;-73
2021/09/10 03:35:17;;;;;;;26.45;20.13;;;19.80;99.90;;;;;;5002964;28;25062;-72
2021/09/10 03:37:44;;;;;;;25.85;19.02;;;19.80;99.90;;;;;;5003138;28;25073;-72
2021/09/10 03:40:10;;;;;;;23.52;19.05;;;19.80;99.90;;;;;;4996115;28;25151;-72
2021/09/10 03:42:36;;;;;;;25.13;19.48;;;19.80;99.90;;;;;;5004578;28;25056;-72
2021/09/10 03:45:03;;;;;;;27.10;20.15;;;19.70;99.90;;;;;;5009481;28;25124;-71
2021/09/10 03:47:28;;;;;;;22.95;18.10;;;19.70;99.90;;;;;;5007720;28;25083;-72
2021/09/10 03:49:54;;;;;;;21.58;19.05;;;19.70;99.90;;;;;;5007865;28;25066;-72
2021/09/10 03:52:20;;;;;;;26.02;18.60;;;19.70;99.90;;;;;;5009550;28;25158;-72
2021/09/10 03:54:45;;;;;;;21.90;16.63;;;19.70;99.90;;;;;;4999033;28;25102;-73
2021/09/10 03:57:13;;;;;;;22.98;18.00;;;19.70;99.90;;;;;;4996605;28;25140;-72
2021/09/10 03:59:38;;;;;;;20.63;16.77;;;19.80;99.90;;;;;;4999607;28;25079;-72
2021/09/10 04:02:06;;;;;;;21.65;17.05;;;19.80;99.90;;;;;;4997964;28;25113;-72
2021/09/10 04:04:34;;;;;;;21.15;16.35;;;19.80;99.90;;;;;;5011460;28;25051;-72
2021/09/10 04:06:59;;;;;;;24.08;17.48;;;19.80;99.90;;;;;;5011411;28;25057;-71
2021/09/10 04:09:26;;;;;;;21.60;17.33;;;19.80;99.90;;;;;;5016350;28;25086;-70
2021/09/10 04:11:53;;;;;;;22.15;15.52;;;19.80;99.90;;;;;;5012953;28;25060;-72
2021/09/10 04:14:19;;;;;;;25.95;16.73;;;19.80;99.90;;;;;;5014684;28;25107;-70
2021/09/10 04:16:49;;;;;;;22.88;17.10;;;19.80;99.90;;;;;;5013068;28;25069;-71
2021/09/10 04:19:15;;;;;;;25.38;16.92;;;20.00;99.90;;;;;;5007127;28;25068;-72
2021/09/10 04:21:47;;;;;;;19.50;16.73;;;20.00;99.90;;;;;;5021592;28;25075;-75
2021/09/10 04:24:17;;;;;;;24.92;16.55;;;20.00;99.90;;;;;;5022193;28;25063;-72
2021/09/10 04:26:43;;;;;;;19.45;17.17;;;20.00;99.90;;;;;;5019606;28;25112;-72
2021/09/10 04:29:17;;;;;;;21.65;16.75;;;20.00;99.90;;;;;;5026762;28;25068;-71
2021/09/10 04:31:44;;;;;;;20.60;17.00;;;20.10;99.90;;;;;;5029399;28;25078;-71
2021/09/10 04:34:20;;;;;;;21.60;16.67;;;20.10;99.90;;;;;;5036862;28;25114;-71
2021/09/10 04:36:46;;;;;;;22.73;17.20;;;20.10;99.90;;;;;;5031806;28;25104;-74
2021/09/10 04:39:11;;;;;;;22.55;17.73;;;20.10;99.90;;;;;;5034516;28;25069;-74
2021/09/10 04:41:38;;;;;;;27.65;18.23;;;20.00;99.90;;;;;;5025864;28;25065;-72
2021/09/10 04:44:04;;;;;;;20.00;16.25;;;19.90;99.90;;;;;;5026923;28;25058;-72
2021/09/10 04:46:30;;;;;;;23.00;16.88;;;20.00;99.90;;;;;;5017528;28;25097;-71
2021/09/10 04:48:55;;;;;;;21.13;14.52;;;20.00;99.90;;;;;;5001560;28;25133;-73
2021/09/10 04:51:21;;;;;;;18.92;14.82;;;20.10;99.90;;;;;;5005326;28;25079;-72
2021/09/10 04:53:46;;;;;;;21.15;15.07;;;20.20;99.90;;;;;;5009856;28;25161;-73
2021/09/10 04:56:12;;;;;;;19.63;15.13;;;20.20;99.90;;;;;;5009252;28;25127;-73
2021/09/10 04:58:40;;;;;;;20.80;14.90;;;20.20;99.90;;;;;;5003447;28;25078;-72
2021/09/10 05:01:07;;;;;;;20.38;14.55;;;20.20;99.90;;;;;;5010877;28;25058;-75
2021/09/10 05:03:32;;;;;;;24.63;15.45;;;20.20;99.90;;;;;;4993641;28;25062;-73
2021/09/10 05:06:00;;;;;;;21.60;15.07;;;20.20;99.90;;;;;;5021816;28;25146;-74
2021/09/10 05:08:25;;;;;;;18.02;15.13;;;20.20;99.90;;;;;;5021276;28;25056;-74
2021/09/10 05:10:51;;;;;;;21.30;15.65;;;20.20;99.90;;;;;;5017757;28;25059;-74
2021/09/10 05:13:16;;;;;;;21.83;15.73;;;20.20;99.90;;;;;;5014904;28;25140;-74
2021/09/10 05:15:42;;;;;;;25.98;15.35;;;20.20;99.90;;;;;;5007794;28;25066;-73
2021/09/10 05:18:10;;;;;;;18.95;14.30;;;20.10;99.90;;;;;;4999622;28;25058;-73
2021/09/10 05:20:36;;;;;;;17.25;15.07;;;20.20;99.90;;;;;;5001907;28;25051;-74
2021/09/10 05:23:04;;;;;;;18.88;15.48;;;20.30;99.90;;;;;;5012786;28;25163;-72
2021/09/10 05:25:30;;;;;;;22.52;13.23;;;20.30;99.90;;;;;;5002342;28;25069;-73
2021/09/10 05:27:55;;;;;;;20.00;15.80;;;20.20;99.90;;;;;;4996256;28;25066;-73
2021/09/10 05:30:21;;;;;;;20.88;16.77;;;20.20;99.90;;;;;;5005369;28;25118;-73
2021/09/10 05:32:47;;;;;;;17.38;14.05;;;20.20;99.90;;;;;;5000892;28;25136;-73
2021/09/10 05:35:14;;;;;;;22.23;15.57;;;20.20;99.90;;;;;;5010811;28;25080;-74
2021/09/10 05:37:39;;;;;;;20.33;14.88;;;20.10;99.90;;;;;;5013239;28;25090;-73
2021/09/10 05:40:07;;;;;;;19.83;14.40;;;20.10;99.90;;;;;;5012516;28;25108;-74
2021/09/10 05:42:33;;;;;;;20.63;14.88;;;20.10;99.90;;;;;;5009873;28;25153;-73
2021/09/10 05:44:58;;;;;;;22.08;13.85;;;20.10;99.90;;;;;;5003316;28;25075;-72
2021/09/10 05:47:25;;;;;;;19.10;14.90;;;20.10;99.90;;;;;;5005614;28;25111;-73
2021/09/10 05:49:51;;;;;;;18.17;14.27;;;20.00;99.90;;;;;;5007703;28;25141;-72
2021/09/10 05:52:16;;;;;;;21.58;15.00;;;20.10;99.90;;;;;;5029603;28;25086;-72
2021/09/10 05:54:42;;;;;;;18.85;13.18;;;20.10;99.90;;;;;;5024054;28;25076;-73
2021/09/10 05:57:08;;;;;;;22.40;14.45;;;20.10;99.90;;;;;;5004471;28;25048;-73
2021/09/10 05:59:33;;;;;;;19.80;14.30;;;20.20;99.90;;;;;;5008192;28;25060;-74
2021/09/10 06:01:59;;;;;;;19.83;14.55;;;20.30;99.90;;;;;;5003835;28;25050;-75
2021/09/10 06:04:26;;;;;;;19.00;13.75;;;20.30;99.90;;;;;;5011641;28;25170;-74
2021/09/10 06:06:51;;;;;;;19.67;14.98;;;20.30;99.90;;;;;;5005791;28;25090;-73
2021/09/10 06:09:17;;;;;;;22.33;14.90;;;20.20;99.90;;;;;;5008247;28;25145;-73
2021/09/10 06:11:43;;;;;;;20.40;14.73;;;20.20;99.90;;;;;;5007298;28;25083;-71
2021/09/10 06:14:08;;;;;;;22.67;14.90;;;20.10;99.90;;;;;;5003107;28;25046;-75
2021/09/10 06:16:35;;;;;;;23.73;14.07;;;20.00;99.90;;;;;;5008285;28;25126;-73
2021/09/10 06:19:00;;;;;;;19.17;14.13;;;19.90;99.90;;;;;;5009648;28;25058;-73
2021/09/10 06:21:26;;;;;;;23.70;14.05;;;19.90;99.90;;;;;;5008165;28;25078;-73
2021/09/10 06:23:52;;;;;;;21.95;13.68;;;19.80;99.90;;;;;;5010259;28;25064;-73
2021/09/10 06:26:19;;;;;;;18.25;13.05;;;19.70;99.90;;;;;;5009686;28;25113;-72
2021/09/10 06:28:44;;;;;;;17.10;12.70;;;19.60;99.90;;;;;;5004575;28;25141;-73
2021/09/10 06:31:10;;;;;;;21.80;12.93;;;19.60;99.90;;;;;;5001908;28;25067;-73
2021/09/10 06:33:36;;;;;;;16.52;14.13;;;19.70;99.90;;;;;;5010291;28;25077;-73
2021/09/10 06:36:02;;;;;;;20.17;14.05;;;19.70;99.90;;;;;;5018303;28;25069;-73
2021/09/10 06:38:28;;;;;;;28.10;15.02;;;19.70;99.90;;;;;;5023310;28;25227;-74
2021/09/10 06:40:53;;;;;;;22.85;15.75;;;19.70;99.90;;;;;;5015850;28;25107;-74
2021/09/10 06:43:19;;;;;;;21.02;15.10;;;19.60;99.90;;;;;;5020760;28;25122;-73
2021/09/10 06:45:46;;;;;;;23.23;16.08;;;19.50;99.90;;;;;;5026477;28;25060;-72
2021/09/10 06:48:11;;;;;;;19.35;14.80;;;19.50;99.90;;;;;;5026031;28;25059;-73
2021/09/10 06:50:37;;;;;;;22.05;15.25;;;19.60;99.90;;;;;;5022318;28;25069;-74
2021/09/10 06:53:03;;;;;;;22.92;14.90;;;19.60;99.90;;;;;;5024256;28;25069;-72
2021/09/10 06:55:29;;;;;;;24.20;14.80;;;19.70;99.90;;;;;;5021881;28;25060;-72
2021/09/10 06:57:55;;;;;;;25.25;15.02;;;19.70;99.90;;;;;;5029756;28;25065;-72
2021/09/10 07:00:20;;;;;;;20.38;14.25;;;19.80;99.90;;;;;;5028802;28;25119;-72
2021/09/10 07:02:46;;;;;;;20.73;14.02;;;19.80;99.90;;;;;;5030458;28;25076;-75
2021/09/10 07:05:14;;;;;;;23.73;13.80;;;19.80;99.90;;;;;;5028884;28;25079;-73
2021/09/10 07:07:39;;;;;;;24.38;15.05;;;19.80;99.90;;;;;;5029714;28;25058;-71
2021/09/10 07:10:05;;;;;;;22.92;14.15;;;19.80;99.90;;;;;;5029262;28;25094;-71
2021/09/10 07:12:31;;;;;;;20.63;14.23;;;19.80;99.90;;;;;;5030789;28;25076;-72
2021/09/10 07:14:57;;;;;;;19.05;12.95;;;19.90;99.90;;;;;;5030773;28;25075;-72
2021/09/10 07:17:23;;;;;;;21.52;14.93;;;19.90;99.90;;;;;;5029292;28;25063;-73
2021/09/10 07:19:48;;;;;;;21.08;12.45;;;19.90;99.90;;;;;;5031681;28;25086;-75
2021/09/10 07:22:14;;;;;;;18.98;13.18;;;19.90;99.90;;;;;;5024381;28;25072;-72
2021/09/10 07:24:40;;;;;;;23.17;12.65;;;19.90;99.90;;;;;;5013527;28;25072;-74
2021/09/10 07:27:06;;;;;;;17.08;12.05;;;20.00;99.90;;;;;;5014780;28;25077;-73
2021/09/10 07:29:31;;;;;;;20.15;12.07;;;20.10;99.90;;;;;;5029348;28;25066;-73
2021/09/10 07:31:57;;;;;;;19.40;12.52;;;20.10;99.90;;;;;;5023768;28;25081;-73
2021/09/10 07:34:22;;;;;;;18.20;12.48;;;20.10;99.90;;;;;;5032181;28;25091;-74
2021/09/10 07:36:49;;;;;;;20.25;11.55;;;20.20;99.90;;;;;;5027447;28;25068;-72
2021/09/10 07:39:21;;;;;;;20.00;11.80;;;20.20;99.90;;;;;;5017066;28;25156;-75
2021/09/10 07:41:47;;;;;;;24.75;12.18;;;20.30;99.90;;;;;;5011112;28;25058;-74
2021/09/10 07:44:14;;;;;;;15.68;10.65;;;20.30;99.90;;;;;;5014830;28;25082;-73
2021/09/10 07:46:41;;;;;;;19.23;10.77;;;20.40;99.90;;;;;;5014175;28;25094;-73
2021/09/10 07:49:07;;;;;;;14.73;10.10;;;20.40;99.90;;;;;;5015166;28;25043;-74
2021/09/10 07:51:33;;;;;;;16.58;10.07;;;20.40;99.90;;;;;;5016656;28;25092;-73
2021/09/10 07:53:58;;;;;;;19.23;10.27;;;20.40;99.90;;;;;;5007863;28;25071;-73
2021/09/10 07:56:24;;;;;;;21.05;10.38;;;20.40;99.90;;;;;;5009086;28;25060;-74
2021/09/10 07:58:50;;;;;;;19.02;9.52;;;20.50;99.90;;;;;;5010040;28;25127;-75
2021/09/10 08:01:15;;;;;;;14.30;8.70;;;20.70;99.90;;;;;;5018817;28;25063;-75
2021/09/10 08:03:41;;;;;;;13.98;9.32;;;20.70;99.90;;;;;;5014164;28;25101;-75
2021/09/10 08:06:06;;;;;;;15.90;9.45;;;20.80;99.90;;;;;;5010276;28;25083;-76
2021/09/10 08:08:32;;;;;;;16.58;8.88;;;20.70;99.90;;;;;;5011880;28;25083;-75
2021/09/10 08:10:58;;;;;;;20.13;10.13;;;20.70;99.90;;;;;;5013807;28;25086;-76
2021/09/10 08:13:23;;;;;;;14.45;8.95;;;20.70;99.90;;;;;;5011358;28;25072;-75
2021/09/10 08:15:50;;;;;;;14.77;9.30;;;20.60;99.90;;;;;;5012255;28;25091;-75
2021/09/10 08:18:15;;;;;;;16.23;9.30;;;20.60;99.90;;;;;;5011946;28;25123;-76
2021/09/10 08:20:41;;;;;;;19.58;10.52;;;20.60;99.90;;;;;;5012794;28;25067;-75
2021/09/10 08:23:07;;;;;;;16.17;9.52;;;20.80;99.90;;;;;;5015344;28;25094;-75
2021/09/10 08:25:33;;;;;;;14.27;9.38;;;20.80;99.90;;;;;;5013251;28;25060;-76
2021/09/10 08:27:58;;;;;;;14.32;10.38;;;20.90;99.90;;;;;;5009995;28;25086;-77
2021/09/10 08:30:24;;;;;;;16.17;10.05;;;20.90;99.90;;;;;;5004146;28;25073;-75
2021/09/10 08:32:50;;;;;;;13.85;10.43;;;20.80;99.90;;;;;;5012329;28;25078;-74
2021/09/10 08:35:15;;;;;;;16.38;10.32;;;20.80;99.90;;;;;;5010691;28;25089;-75
2021/09/10 08:37:41;;;;;;;15.77;10.20;;;20.90;99.90;;;;;;5010064;28;25077;-75
2021/09/10 08:40:07;;;;;;;14.70;10.95;;;21.00;99.90;;;;;;5007040;28;25050;-74
2021/09/10 08:42:33;;;;;;;15.95;10.75;;;21.00;99.90;;;;;;5012162;28;25147;-74
2021/09/10 08:44:59;;;;;;;17.65;11.00;;;21.00;99.90;;;;;;5006468;28;25120;-75
2021/09/10 08:47:24;;;;;;;14.20;9.57;;;21.10;99.90;;;;;;5011654;28;25065;-76
2021/09/10 08:49:52;;;;;;;18.00;9.52;;;21.20;99.90;;;;;;5005246;28;25071;-74
2021/09/10 08:52:18;;;;;;;17.80;10.40;;;21.30;99.90;;;;;;5006209;28;25068;-75
2021/09/10 08:54:43;;;;;;;16.23;11.98;;;21.40;99.90;;;;;;5012163;28;25166;-74
2021/09/10 08:57:10;;;;;;;14.88;11.00;;;21.40;99.90;;;;;;5011336;28;25077;-74
2021/09/10 08:59:36;;;;;;;16.42;11.35;;;21.60;99.90;;;;;;5009618;28;25092;-74
2021/09/10 09:02:02;;;;;;;16.67;11.05;;;21.50;99.90;;;;;;5006677;28;25141;-75
2021/09/10 09:04:34;;;;;;;10.85;9.50;;;21.50;99.90;;;;;;5011085;28;25074;-75
2021/09/10 09:07:01;;;;;;;16.67;10.55;;;21.60;99.90;;;;;;5010176;28;25154;-72
2021/09/10 09:09:34;;;;;;;17.02;10.18;;;21.70;99.90;;;;;;5010704;28;25053;-73
2021/09/10 09:12:20;;;;;;;17.63;10.07;;;21.70;99.90;;;;;;5009209;28;25083;-74
2021/09/10 09:15:07;;;;;;;16.13;10.27;;;21.50;99.90;;;;;;5008739;28;25080;-75
2021/09/10 09:17:35;;;;;;;19.73;11.27;;;21.50;99.90;;;;;;5009796;28;25108;-77
2021/09/10 09:20:25;;;;;;;17.67;11.05;;;21.40;99.90;;;;;;5006655;28;25059;-73
2021/09/10 09:23:06;;;;;;;13.48;11.02;;;21.30;99.90;;;;;;5003468;28;25132;-78
2021/09/10 09:25:41;;;;;;;15.55;11.75;;;21.30;99.90;;;;;;5008624;28;25062;-76
2021/09/10 09:28:27;;;;;;;15.68;12.30;;;21.30;99.90;;;;;;5011507;28;25147;-78
2021/09/10 09:30:58;;;;;;;16.73;12.77;;;21.30;99.90;;;;;;5008226;28;25127;-73
2021/09/10 09:33:35;;;;;;;14.35;12.80;;;21.40;99.90;;;;;;5018417;28;25069;-74
2021/09/10 09:36:02;;;;;;;17.10;13.10;;;21.60;99.90;;;;;;5016964;28;25073;-75
2021/09/10 09:38:30;;;;;;;15.55;13.00;;;21.70;99.90;;;;;;5025607;28;25067;-76
2021/09/10 09:41:02;;;;;;;16.90;12.00;;;21.80;99.90;;;;;;5024455;28;25075;-76
2021/09/10 09:43:33;;;;;;;17.67;11.93;;;22.00;99.90;;;;;;5010094;28;25154;-74
2021/09/10 09:46:00;;;;;;;17.73;12.73;;;22.10;99.90;;;;;;5010774;28;25061;-76
2021/09/10 09:48:27;;;;;;;18.75;12.40;;;22.20;99.90;;;;;;5006397;28;25051;-75
2021/09/10 09:50:55;;;;;;;19.80;12.75;;;22.10;99.90;;;;;;5010010;28;25134;-75
2021/09/10 09:53:22;;;;;;;17.58;12.63;;;22.00;99.90;;;;;;5005118;28;25134;-74
2021/09/10 09:55:49;;;;;;;16.70;11.73;;;22.00;99.90;;;;;;5005067;28;25056;-74
2021/09/10 09:58:15;;;;;;;16.05;13.70;;;21.90;99.90;;;;;;5008156;28;25065;-74
2021/09/10 10:00:43;;;;;;;21.58;14.52;;;21.90;99.90;;;;;;5008884;28;25134;-77
2021/09/10 10:03:09;;;;;;;18.45;13.68;;;21.90;99.90;;;;;;5011561;28;25064;-74
2021/09/10 10:06:01;;;;;;;17.13;13.57;;;22.10;99.90;;;;;;5011081;28;25130;-75
2021/09/10 10:08:49;;;;;;;16.88;14.30;;;22.30;99.90;;;;;;5010138;28;25106;-75
2021/09/10 10:11:20;;;;;;;19.60;13.18;;;22.50;99.90;;;;;;5008242;28;25069;-75
2021/09/10 10:13:47;;;;;;;14.27;12.65;;;22.30;99.90;;;;;;5010069;28;25053;-74
2021/09/10 10:16:42;;;;;;;14.57;12.20;;;22.50;99.90;;;;;;5008922;28;25069;-75
2021/09/10 10:19:34;;;;;;;12.65;11.45;;;22.60;99.90;;;;;;5010294;28;25076;-75
2021/09/10 10:22:05;;;;;;;16.10;13.15;;;22.60;99.90;;;;;;5009225;28;25095;-74
2021/09/10 10:24:52;;;;;;;19.83;12.90;;;22.60;99.90;;;;;;5008927;28;25101;-75
2021/09/10 10:27:38;;;;;;;14.82;12.73;;;22.70;99.90;;;;;;4996980;28;25072;-75
2021/09/10 10:30:16;;;;;;;12.50;11.30;;;22.60;99.90;;;;;;4999118;28;25084;-76
2021/09/10 10:32:43;;;;;;;19.38;12.82;;;22.60;99.90;;;;;;5007654;28;25066;-76
2021/09/10 10:35:29;;;;;;;15.95;14.27;;;22.60;99.90;;;;;;5009306;28;25084;-76
2021/09/10 10:38:01;;;;;;;16.00;13.82;;;22.50;99.90;;;;;;5004322;28;25061;-73
2021/09/10 10:40:30;;;;;;;20.13;14.70;;;22.50;99.90;;;;;;5009623;28;25066;-75
2021/09/10 10:42:59;;;;;;;19.13;14.65;;;22.50;99.90;;;;;;5011384;28;25098;-73
2021/09/10 10:45:46;;;;;;;16.85;13.00;;;22.50;99.90;;;;;;5005696;28;25055;-76
2021/09/10 10:48:33;;;;;;;14.23;11.85;;;22.50;99.90;;;;;;5009967;28;25067;-76
2021/09/10 10:51:24;;;;;;;14.70;9.88;;;22.60;99.90;;;;;;5009285;28;25091;-75
2021/09/10 10:53:53;;;;;;;9.67;7.43;;;22.70;99.90;;;;;;5015392;28;25095;-78
2021/09/10 10:56:21;;;;;;;9.45;7.10;;;22.70;99.90;;;;;;5018850;28;25068;-75
2021/09/10 11:02:35;;;;;;;8.37;7.47;;;22.80;99.90;;;;;;5018217;28;25053;-76
2021/09/10 11:05:07;;;;;;;8.40;7.13;;;22.90;99.90;;;;;;4973186;28;25067;-74
2021/09/10 11:07:33;;;;;;;7.90;6.63;;;23.00;99.90;;;;;;4975034;28;25100;-77
2021/09/10 11:10:05;;;;;;;9.48;6.88;;;23.10;99.90;;;;;;5004675;28;25063;-78
2021/09/10 11:12:31;;;;;;;12.70;7.82;;;23.20;99.90;;;;;;5019468;28;25054;-76
2021/09/10 11:14:57;;;;;;;10.20;7.45;;;23.10;99.90;;;;;;5020236;28;25058;-77
2021/09/10 11:17:27;;;;;;;9.73;7.10;;;23.10;99.90;;;;;;5011683;28;25077;-76
2021/09/10 11:19:55;;;;;;;9.73;6.90;;;23.10;99.90;;;;;;5000878;28;25139;-75
2021/09/10 11:22:21;;;;;;;14.52;7.30;;;23.10;99.90;;;;;;5004789;28;25053;-74
2021/09/10 11:24:47;;;;;;;9.13;5.95;;;23.00;99.90;;;;;;5005348;28;25059;-74
2021/09/10 11:27:27;;;;;;;8.60;5.95;;;23.10;99.90;;;;;;5011764;28;25114;-77
2021/09/10 11:29:53;;;;;;;10.98;7.05;;;23.30;99.90;;;;;;5002014;28;25060;-73
2021/09/10 11:32:26;;;;;;;10.02;6.93;;;23.30;99.90;;;;;;5007911;28;25062;-75
2021/09/10 11:34:53;;;;;;;9.77;6.50;;;23.30;99.90;;;;;;5007319;28;25083;-73
2021/09/10 11:37:27;;;;;;;8.25;6.43;;;23.40;99.90;;;;;;5012605;28;25097;-75
2021/09/10 11:39:55;;;;;;;10.15;5.88;;;23.20;99.90;;;;;;5012289;28;25085;-75
2021/09/10 11:42:35;;;;;;;12.75;6.13;;;23.20;99.90;;;;;;5012616;28;25082;-75
2021/09/10 11:45:04;;;;;;;9.38;6.15;;;23.20;99.90;;;;;;5012386;28;25064;-76
2021/09/10 11:47:31;;;;;;;7.07;6.32;;;23.20;99.90;;;;;;5012933;28;25150;-76
2021/09/10 11:49:58;;;;;;;9.50;6.03;;;22.90;99.90;;;;;;5010503;28;25105;-74
2021/09/10 11:52:38;;;;;;;8.45;5.55;;;22.70;99.90;;;;;;5011790;28;25135;-77
2021/09/10 11:55:15;;;;;;;9.25;6.60;;;22.70;99.90;;;;;;5010617;28;25072;-75
2021/09/10 11:57:43;;;;;;;10.68;6.55;;;22.70;99.90;;;;;;5014015;28;25078;-75
2021/09/10 12:00:26;;;;;;;10.07;6.45;;;22.70;99.90;;;;;;5020385;28;25065;-75
2021/09/10 12:02:59;;;;;;;7.72;5.90;;;22.80;99.90;;;;;;5031679;28;25052;-76
2021/09/10 12:05:26;;;;;;;10.77;6.10;;;22.60;99.90;;;;;;5022510;28;25059;-76
2021/09/10 12:07:53;;;;;;;9.73;6.45;;;22.60;99.90;;;;;;5011763;28;25073;-75
2021/09/10 12:10:35;;;;;;;13.77;6.00;;;22.50;99.90;;;;;;5016430;28;25080;-77
2021/09/10 12:13:15;;;;;;;8.63;5.65;;;22.40;99.90;;;;;;5016436;28;25077;-74
2021/09/10 12:15:43;;;;;;;11.60;5.57;;;22.50;99.90;;;;;;5013058;28;25071;-75
2021/09/10 12:18:15;;;;;;;9.82;5.63;;;22.50;99.90;;;;;;5016306;28;25068;-77
2021/09/10 12:20:43;;;;;;;7.13;5.10;;;22.50;99.90;;;;;;5017616;28;25087;-75
2021/09/10 12:23:20;;;;;;;12.48;5.70;;;22.60;99.90;;;;;;5003821;28;25059;-77
2021/09/10 12:25:48;;;;;;;9.73;5.78;;;22.60;99.90;;;;;;5011917;28;25005;-77
2021/09/10 12:28:19;;;;;;;8.27;6.78;;;22.60;99.90;;;;;;5003379;28;25136;-76
2021/09/10 12:30:49;;;;;;;9.82;6.10;;;22.60;99.90;;;;;;5012660;28;25056;-76
2021/09/10 12:33:21;;;;;;;11.43;5.78;;;22.60;99.90;;;;;;5012092;28;25074;-76
2021/09/10 12:35:51;;;;;;;10.80;5.78;;;22.60;99.90;;;;;;5009314;28;25105;-76
2021/09/10 12:38:18;;;;;;;10.68;7.05;;;22.60;99.90;;;;;;5014836;28;25154;-77